createdAt,value
2018-09-30T00:00:46.342Z,99.90
2018-09-30T00:03:14.659Z,99.90
2018-09-30T00:05:42.971Z,99.90
2018-09-30T00:08:11.373Z,99.90
2018-09-30T00:10:39.745Z,99.90
2018-09-30T00:13:08.181Z,99.90
2018-09-30T00:15:36.509Z,99.90
2018-09-30T00:18:04.881Z,99.90
2018-09-30T00:20:33.207Z,99.90
2018-09-30T00:23:01.569Z,99.90
2018-09-30T00:25:35.317Z,99.90
2018-09-30T00:28:03.664Z,99.90
2018-09-30T00:30:32.016Z,99.90
2018-09-30T00:33:00.425Z,99.90
2018-09-30T00:35:28.772Z,99.90
2018-09-30T00:37:57.091Z,99.90
2018-09-30T00:40:25.458Z,99.90
2018-09-30T00:42:53.817Z,99.90
2018-09-30T00:45:22.144Z,99.90
2018-09-30T00:47:50.484Z,99.90
2018-09-30T00:50:18.874Z,99.90
2018-09-30T00:52:47.192Z,99.90
2018-09-30T00:55:15.545Z,99.90
2018-09-30T00:57:43.920Z,99.90
2018-09-30T01:00:12.287Z,99.90
2018-09-30T01:02:40.663Z,99.90
2018-09-30T01:05:09.120Z,99.90
2018-09-30T01:07:37.480Z,99.90
2018-09-30T01:10:06.018Z,99.90
2018-09-30T01:12:34.364Z,99.90
2018-09-30T01:15:02.708Z,99.90
2018-09-30T01:17:31.073Z,99.90
2018-09-30T01:19:59.413Z,99.90
2018-09-30T01:22:27.764Z,99.90
2018-09-30T01:24:56.084Z,99.90
2018-09-30T01:27:24.429Z,99.90
2018-09-30T01:29:52.749Z,99.90
2018-09-30T01:32:21.105Z,99.90
2018-09-30T01:34:49.411Z,99.90
2018-09-30T01:37:17.760Z,99.90
2018-09-30T01:39:46.133Z,99.90
2018-09-30T01:42:14.478Z,99.90
2018-09-30T01:44:42.811Z,99.90
2018-09-30T01:47:11.147Z,99.90
2018-09-30T01:49:39.468Z,99.90
2018-09-30T01:52:19.224Z,99.90
2018-09-30T01:54:47.586Z,99.90
2018-09-30T01:57:15.908Z,99.90
2018-09-30T01:59:44.256Z,99.90
2018-09-30T02:02:12.578Z,99.90
2018-09-30T02:04:40.932Z,99.90
2018-09-30T02:07:09.262Z,99.90
2018-09-30T02:09:37.606Z,99.90
2018-09-30T02:12:06.025Z,99.90
2018-09-30T02:14:34.341Z,99.90
2018-09-30T02:17:02.836Z,99.90
2018-09-30T02:19:31.299Z,99.90
2018-09-30T02:21:59.625Z,99.90
2018-09-30T02:24:27.940Z,99.90
2018-09-30T02:26:56.333Z,99.90
2018-09-30T02:29:24.700Z,99.90
2018-09-30T02:31:53.031Z,99.90
2018-09-30T02:34:21.386Z,99.90
2018-09-30T02:36:49.718Z,99.90
2018-09-30T02:39:18.034Z,99.90
2018-09-30T02:41:46.402Z,99.90
2018-09-30T02:44:14.717Z,99.90
2018-09-30T02:46:43.069Z,99.90
2018-09-30T02:49:11.377Z,99.90
2018-09-30T02:51:39.723Z,99.90
2018-09-30T02:54:08.035Z,99.90
2018-09-30T02:56:36.401Z,99.90
2018-09-30T02:59:04.773Z,99.90
2018-09-30T03:01:33.080Z,99.90
2018-09-30T03:04:01.444Z,99.90
2018-09-30T03:06:35.302Z,99.90
2018-09-30T03:09:09.123Z,99.90
2018-09-30T03:11:37.460Z,99.90
2018-09-30T03:14:05.812Z,99.90
2018-09-30T03:16:34.196Z,99.90
2018-09-30T03:19:02.653Z,99.90
2018-09-30T03:21:30.969Z,99.90
2018-09-30T03:23:59.327Z,99.90
2018-09-30T03:26:27.633Z,99.90
2018-09-30T03:28:56.000Z,99.90
2018-09-30T03:31:24.324Z,99.90
2018-09-30T03:33:52.752Z,99.90
2018-09-30T03:36:21.051Z,99.90
2018-09-30T03:38:49.356Z,99.90
2018-09-30T03:41:17.755Z,99.90
2018-09-30T03:43:46.135Z,99.90
2018-09-30T03:46:14.514Z,99.90
2018-09-30T03:48:42.839Z,99.90
2018-09-30T03:51:11.184Z,99.90
2018-09-30T03:53:39.505Z,99.90
2018-09-30T03:56:07.848Z,99.90
2018-09-30T03:58:36.157Z,99.90
2018-09-30T04:01:04.512Z,99.90
2018-09-30T04:03:32.812Z,99.90
2018-09-30T04:06:01.241Z,99.90
2018-09-30T04:08:29.574Z,99.90
2018-09-30T04:10:57.892Z,99.90
2018-09-30T04:13:26.260Z,99.90
2018-09-30T04:15:54.568Z,99.90
2018-09-30T04:18:22.949Z,99.90
2018-09-30T04:20:51.444Z,99.90
2018-09-30T04:23:19.796Z,99.90
2018-09-30T04:25:48.139Z,99.90
2018-09-30T04:28:16.459Z,99.90
2018-09-30T04:30:44.769Z,99.90
2018-09-30T04:33:13.187Z,99.90
2018-09-30T04:35:41.480Z,99.90
2018-09-30T04:38:09.808Z,99.90
2018-09-30T04:40:38.140Z,99.90
2018-09-30T04:43:06.904Z,99.90
2018-09-30T04:45:35.227Z,99.90
2018-09-30T04:48:03.587Z,99.90
2018-09-30T04:50:31.899Z,99.90
2018-09-30T04:53:00.312Z,99.90
2018-09-30T04:55:28.675Z,99.90
2018-09-30T04:57:57.040Z,99.90
2018-09-30T05:00:25.389Z,99.90
2018-09-30T05:02:53.713Z,99.90
2018-09-30T05:05:22.049Z,99.90
2018-09-30T05:07:50.391Z,99.90
2018-09-30T05:10:18.725Z,99.90
2018-09-30T05:12:47.065Z,99.90
2018-09-30T05:15:16.372Z,99.90
2018-09-30T05:17:44.692Z,99.90
2018-09-30T05:20:13.043Z,99.90
2018-09-30T05:22:41.404Z,99.90
2018-09-30T05:25:09.761Z,99.90
2018-09-30T05:27:38.076Z,99.90
2018-09-30T05:30:06.520Z,99.90
2018-09-30T05:32:34.841Z,99.90
2018-09-30T05:35:03.185Z,99.90
2018-09-30T05:37:31.534Z,99.90
2018-09-30T05:39:59.895Z,99.90
2018-09-30T05:42:28.331Z,99.90
2018-09-30T05:44:56.666Z,99.90
2018-09-30T05:47:25.003Z,99.90
2018-09-30T05:49:53.418Z,99.90
2018-09-30T05:52:21.785Z,99.90
2018-09-30T05:54:50.149Z,99.90
2018-09-30T05:57:18.485Z,99.90
2018-09-30T05:59:46.830Z,99.90
2018-09-30T06:02:15.171Z,99.90
2018-09-30T06:04:43.535Z,99.90
2018-09-30T06:07:11.928Z,99.90
2018-09-30T06:09:40.268Z,99.90
2018-09-30T06:12:08.656Z,99.90
2018-09-30T06:14:37.025Z,99.90
2018-09-30T06:17:05.398Z,99.90
2018-09-30T06:19:33.783Z,99.90
2018-09-30T06:22:02.131Z,99.90
2018-09-30T06:24:30.480Z,99.90
2018-09-30T06:26:58.868Z,99.90
2018-09-30T06:29:27.213Z,99.90
2018-09-30T06:31:55.657Z,99.90
2018-09-30T06:34:24.360Z,99.90
2018-09-30T06:36:52.740Z,99.90
2018-09-30T06:39:21.077Z,99.90
2018-09-30T06:41:49.426Z,99.90
2018-09-30T06:44:17.808Z,99.90
2018-09-30T06:46:46.177Z,99.90
2018-09-30T06:49:14.609Z,99.90
2018-09-30T06:51:42.916Z,99.90
2018-09-30T06:54:11.236Z,99.90
2018-09-30T06:56:39.624Z,99.90
2018-09-30T06:59:08.141Z,99.90
2018-09-30T07:01:36.501Z,99.90
2018-09-30T07:04:04.968Z,99.90
2018-09-30T07:06:34.165Z,99.90
2018-09-30T07:09:02.598Z,99.90
2018-09-30T07:11:30.944Z,99.90
2018-09-30T07:13:59.291Z,99.90
2018-09-30T07:16:27.647Z,99.90
2018-09-30T07:18:56.006Z,99.90
2018-09-30T07:21:24.384Z,99.90
2018-09-30T07:23:52.715Z,99.90
2018-09-30T07:26:21.092Z,99.90
2018-09-30T07:28:49.544Z,99.90
2018-09-30T07:31:17.920Z,99.90
2018-09-30T07:33:46.338Z,99.90
2018-09-30T07:36:14.677Z,99.90
2018-09-30T07:38:42.999Z,99.90
2018-09-30T07:41:11.453Z,99.90
2018-09-30T07:43:39.821Z,99.90
2018-09-30T07:46:08.653Z,99.90
2018-09-30T07:48:37.041Z,99.90
2018-09-30T07:51:05.365Z,99.90
2018-09-30T07:53:33.728Z,99.90
2018-09-30T07:56:02.128Z,99.90
2018-09-30T07:58:30.456Z,99.90
2018-09-30T08:00:58.828Z,99.90
2018-09-30T08:03:27.147Z,99.90
2018-09-30T08:05:55.499Z,99.90
2018-09-30T08:08:23.828Z,99.90
2018-09-30T08:10:52.176Z,99.90
2018-09-30T08:13:20.585Z,99.90
2018-09-30T08:15:48.941Z,99.90
2018-09-30T08:18:17.524Z,99.90
2018-09-30T08:20:45.886Z,99.90
2018-09-30T08:23:14.270Z,99.90
2018-09-30T08:25:42.654Z,99.90
2018-09-30T08:28:11.135Z,99.90
2018-09-30T08:30:39.540Z,99.90
2018-09-30T08:33:07.983Z,99.90
2018-09-30T08:35:36.319Z,99.90
2018-09-30T08:38:10.185Z,99.90
2018-09-30T08:40:43.855Z,99.90
2018-09-30T08:43:12.232Z,99.90
2018-09-30T08:45:40.645Z,99.90
2018-09-30T08:48:08.973Z,99.90
2018-09-30T08:50:37.400Z,99.90
2018-09-30T08:53:05.893Z,99.90
2018-09-30T08:55:34.264Z,99.90
2018-09-30T08:58:02.698Z,99.90
2018-09-30T09:00:31.092Z,99.90
2018-09-30T09:02:59.510Z,99.90
2018-09-30T09:05:27.829Z,99.90
2018-09-30T09:07:56.168Z,99.90
2018-09-30T09:10:24.555Z,99.90
2018-09-30T09:12:53.027Z,99.90
2018-09-30T09:15:21.457Z,99.90
2018-09-30T09:17:49.917Z,99.90
2018-09-30T09:20:18.336Z,99.90
2018-09-30T09:22:47.018Z,99.90
2018-09-30T09:25:15.420Z,99.90
2018-09-30T09:27:43.897Z,99.90
2018-09-30T09:30:12.308Z,99.90
2018-09-30T09:32:40.713Z,99.90
2018-09-30T09:35:10.126Z,99.90
2018-09-30T09:37:39.073Z,99.90
2018-09-30T09:40:09.617Z,99.90
2018-09-30T09:42:38.044Z,99.90
2018-09-30T09:45:06.679Z,99.90
2018-09-30T09:47:35.080Z,99.90
2018-09-30T09:50:03.557Z,99.90
2018-09-30T09:52:31.953Z,99.90
2018-09-30T09:55:00.312Z,99.90
2018-09-30T09:57:28.676Z,99.90
2018-09-30T09:59:57.084Z,99.90
2018-09-30T10:02:25.537Z,99.90
2018-09-30T10:04:53.930Z,99.90
2018-09-30T10:07:22.324Z,99.90
2018-09-30T10:09:50.714Z,99.90
2018-09-30T10:12:19.259Z,99.90
2018-09-30T10:14:47.662Z,99.90
2018-09-30T10:17:16.020Z,99.90
2018-09-30T10:19:44.370Z,99.90
2018-09-30T10:22:12.728Z,99.90
2018-09-30T10:24:41.083Z,99.90
2018-09-30T10:27:09.471Z,99.90
2018-09-30T10:29:37.813Z,99.90
2018-09-30T10:32:06.204Z,99.90
2018-09-30T10:34:34.596Z,99.90
2018-09-30T10:37:02.981Z,99.90
2018-09-30T10:39:31.341Z,99.90
2018-09-30T10:41:59.732Z,99.90
2018-09-30T10:44:28.060Z,99.90
2018-09-30T10:46:56.416Z,99.90
2018-09-30T10:49:24.852Z,99.90
2018-09-30T10:51:53.161Z,99.90
2018-09-30T10:54:21.554Z,99.90
2018-09-30T10:56:49.995Z,99.90
2018-09-30T10:59:18.275Z,99.90
2018-09-30T11:01:46.612Z,99.90
2018-09-30T11:04:15.001Z,99.90
2018-09-30T11:06:43.353Z,99.90
2018-09-30T11:09:11.689Z,99.90
2018-09-30T11:11:40.123Z,99.90
2018-09-30T11:14:08.453Z,99.90
2018-09-30T11:16:36.767Z,99.90
2018-09-30T11:19:05.189Z,99.90
2018-09-30T11:21:33.565Z,99.90
2018-09-30T11:24:01.892Z,99.90
2018-09-30T11:26:30.224Z,99.90
2018-09-30T11:28:58.611Z,99.90
2018-09-30T11:31:26.985Z,99.90
2018-09-30T11:33:55.361Z,99.90
2018-09-30T11:36:23.698Z,99.90
2018-09-30T11:38:52.064Z,99.90
2018-09-30T11:41:20.448Z,99.90
2018-09-30T11:43:48.788Z,99.90
2018-09-30T11:46:17.137Z,99.60
2018-09-30T11:48:45.488Z,99.90
2018-09-30T11:51:13.858Z,99.90
2018-09-30T11:53:42.193Z,99.90
2018-09-30T11:56:10.543Z,99.90
2018-09-30T11:58:38.948Z,99.90
2018-09-30T12:01:07.400Z,99.90
2018-09-30T12:03:35.659Z,99.90
2018-09-30T12:06:03.984Z,99.90
2018-09-30T12:08:32.396Z,99.90
2018-09-30T12:11:01.496Z,99.90
2018-09-30T12:13:29.827Z,99.90
2018-09-30T12:15:58.160Z,99.90
2018-09-30T12:18:26.603Z,99.90
2018-09-30T12:20:54.950Z,98.70
2018-09-30T12:23:23.289Z,99.30
2018-09-30T12:25:51.659Z,99.90
2018-09-30T12:28:19.963Z,99.90
2018-09-30T12:30:48.396Z,99.90
2018-09-30T12:33:16.818Z,98.80
2018-09-30T12:35:45.194Z,97.40
2018-09-30T12:38:23.849Z,99.00
2018-09-30T12:40:53.545Z,97.50
2018-09-30T12:43:21.938Z,96.90
2018-09-30T12:45:50.276Z,99.10
2018-09-30T12:48:18.629Z,96.30
2018-09-30T12:50:47.036Z,95.70
2018-09-30T12:53:15.317Z,96.70
2018-09-30T12:55:43.705Z,95.90
2018-09-30T12:58:12.066Z,97.10
2018-09-30T13:00:40.413Z,99.90
2018-09-30T13:03:08.717Z,98.90
2018-09-30T13:05:37.068Z,95.70
2018-09-30T13:08:05.504Z,94.50
2018-09-30T13:10:33.858Z,94.00
2018-09-30T13:13:02.288Z,93.70
2018-09-30T13:15:30.646Z,94.40
2018-09-30T13:17:59.040Z,95.60
2018-09-30T13:20:27.373Z,92.10
2018-09-30T13:22:55.738Z,92.40
2018-09-30T13:25:24.061Z,91.30
2018-09-30T13:27:52.411Z,91.20
2018-09-30T13:30:20.815Z,90.90
2018-09-30T13:32:49.188Z,91.90
2018-09-30T13:35:17.585Z,90.90
2018-09-30T13:37:45.917Z,91.90
2018-09-30T13:40:14.363Z,90.40
2018-09-30T13:42:42.605Z,90.70
2018-09-30T13:45:11.048Z,88.40
2018-09-30T13:47:39.399Z,89.30
2018-09-30T13:50:07.781Z,90.20
2018-09-30T13:52:36.200Z,91.50
2018-09-30T13:55:04.599Z,89.20
2018-09-30T13:57:33.020Z,89.00
2018-09-30T14:00:01.368Z,90.00
2018-09-30T14:02:29.767Z,88.40
2018-09-30T14:04:58.132Z,90.00
2018-09-30T14:07:26.505Z,88.30
2018-09-30T14:09:54.853Z,86.70
2018-09-30T14:12:23.268Z,91.20
2018-09-30T14:14:51.608Z,87.20
2018-09-30T14:17:19.980Z,85.40
2018-09-30T14:19:48.319Z,84.10
2018-09-30T14:22:16.676Z,87.80
2018-09-30T14:24:45.005Z,84.10
2018-09-30T14:27:13.368Z,86.10
2018-09-30T14:29:41.699Z,84.70
2018-09-30T14:32:10.053Z,87.80
2018-09-30T14:34:38.571Z,83.40
2018-09-30T14:37:06.969Z,82.20
2018-09-30T14:39:35.337Z,82.60
2018-09-30T14:42:03.713Z,84.20
2018-09-30T14:44:32.041Z,86.00
2018-09-30T14:47:00.361Z,86.10
2018-09-30T14:49:28.704Z,83.70
2018-09-30T14:51:57.071Z,82.60
2018-09-30T14:54:25.460Z,81.50
2018-09-30T14:56:53.743Z,83.20
2018-09-30T14:59:22.134Z,86.10
2018-09-30T15:01:50.507Z,85.10
2018-09-30T15:04:18.848Z,85.70
2018-09-30T15:06:47.172Z,83.70
2018-09-30T15:09:15.543Z,85.50
2018-09-30T15:11:43.929Z,85.80
2018-09-30T15:14:12.493Z,86.50
2018-09-30T15:16:40.943Z,86.50
2018-09-30T15:19:09.294Z,87.00
2018-09-30T15:21:37.669Z,85.90
2018-09-30T15:24:05.984Z,87.50
2018-09-30T15:26:34.429Z,86.40
2018-09-30T15:29:02.813Z,86.90
2018-09-30T15:31:31.172Z,88.50
2018-09-30T15:33:59.541Z,88.60
2018-09-30T15:36:27.937Z,90.60
2018-09-30T15:38:56.288Z,90.80
2018-09-30T15:41:24.676Z,91.40
2018-09-30T15:43:53.058Z,91.80
2018-09-30T15:46:21.403Z,91.50
2018-09-30T15:48:49.812Z,92.40
2018-09-30T15:51:18.166Z,92.70
2018-09-30T15:53:46.622Z,92.80
2018-09-30T15:56:15.032Z,92.80
2018-09-30T15:58:43.376Z,92.80
2018-09-30T16:01:11.812Z,92.80
2018-09-30T16:03:40.273Z,93.80
2018-09-30T16:06:08.668Z,93.30
2018-09-30T16:08:37.028Z,93.50
2018-09-30T16:11:05.591Z,94.10
2018-09-30T16:13:33.947Z,94.00
2018-09-30T16:16:02.325Z,94.20
2018-09-30T16:18:30.657Z,93.70
2018-09-30T16:20:59.084Z,94.70
2018-09-30T16:23:27.432Z,95.40
2018-09-30T16:25:55.769Z,96.20
2018-09-30T16:28:24.134Z,97.10
2018-09-30T16:30:52.993Z,97.90
2018-09-30T16:33:21.372Z,99.50
2018-09-30T16:35:49.756Z,99.30
2018-09-30T16:38:18.151Z,99.50
2018-09-30T16:40:46.504Z,99.90
2018-09-30T16:43:14.882Z,99.90
2018-09-30T16:45:43.209Z,99.90
2018-09-30T16:48:11.669Z,99.90
2018-09-30T16:50:40.098Z,99.90
2018-09-30T16:53:08.398Z,99.90
2018-09-30T16:55:36.794Z,99.90
2018-09-30T16:58:05.430Z,99.90
2018-09-30T17:00:33.895Z,99.90
2018-09-30T17:03:02.280Z,99.90
2018-09-30T17:05:30.730Z,99.90
2018-09-30T17:07:59.119Z,99.90
2018-09-30T17:10:27.539Z,99.90
2018-09-30T17:12:56.066Z,99.90
2018-09-30T17:15:24.659Z,99.90
2018-09-30T17:17:53.020Z,99.90
2018-09-30T17:20:21.436Z,99.90
2018-09-30T17:22:49.788Z,99.90
2018-09-30T17:25:18.156Z,99.90
2018-09-30T17:27:46.548Z,99.90
2018-09-30T17:30:14.910Z,99.90
2018-09-30T17:32:43.316Z,99.90
2018-09-30T17:35:11.748Z,99.90
2018-09-30T17:37:40.153Z,99.90
2018-09-30T17:40:08.541Z,99.90
2018-09-30T17:42:36.880Z,99.90
2018-09-30T17:45:05.856Z,99.90
2018-09-30T17:47:34.200Z,99.90
2018-09-30T17:50:02.576Z,99.90
2018-09-30T17:52:30.990Z,99.90
2018-09-30T17:54:59.375Z,99.90
2018-09-30T17:57:27.752Z,99.90
2018-09-30T17:59:56.181Z,99.90
2018-09-30T18:02:24.603Z,99.90
2018-09-30T18:04:52.984Z,99.90
2018-09-30T18:07:21.581Z,99.90
2018-09-30T18:09:52.320Z,99.90
2018-09-30T18:12:21.546Z,99.90
2018-09-30T18:14:51.592Z,99.90
2018-09-30T18:17:21.204Z,99.90
2018-09-30T18:19:51.650Z,99.90
2018-09-30T18:22:21.819Z,99.90
2018-09-30T18:24:51.503Z,99.90
2018-09-30T18:27:21.497Z,99.90
2018-09-30T18:29:51.988Z,99.90
2018-09-30T18:32:21.877Z,99.90
2018-09-30T18:34:51.613Z,99.90
2018-09-30T18:37:22.520Z,99.90
2018-09-30T18:39:51.827Z,99.90
2018-09-30T18:42:21.816Z,99.90
2018-09-30T18:44:52.108Z,99.90
2018-09-30T18:47:29.782Z,99.90
2018-09-30T18:50:00.658Z,99.90
2018-09-30T18:52:31.620Z,99.90
2018-09-30T18:55:02.311Z,99.90
2018-09-30T18:57:32.478Z,99.90
2018-09-30T19:00:02.585Z,99.90
2018-09-30T19:02:31.879Z,99.90
2018-09-30T19:05:01.537Z,99.90
2018-09-30T19:07:31.529Z,99.90
2018-09-30T19:10:01.327Z,99.90
2018-09-30T19:12:31.195Z,99.90
2018-09-30T19:15:01.158Z,99.90
2018-09-30T19:17:31.173Z,99.90
2018-09-30T19:20:01.029Z,99.90
2018-09-30T19:22:31.103Z,99.90
2018-09-30T19:25:00.934Z,99.90
2018-09-30T19:27:30.636Z,99.90
2018-09-30T19:30:00.223Z,99.90
2018-09-30T19:32:29.704Z,99.90
2018-09-30T19:34:58.959Z,99.90
2018-09-30T19:37:27.827Z,99.90
2018-09-30T19:39:56.344Z,99.90
2018-09-30T19:42:24.796Z,99.90
2018-09-30T19:44:53.175Z,99.90
2018-09-30T19:47:21.977Z,99.90
2018-09-30T19:49:51.477Z,99.90
2018-09-30T19:52:21.267Z,99.90
2018-09-30T19:54:51.147Z,99.90
2018-09-30T19:57:20.947Z,99.90
2018-09-30T19:59:50.749Z,99.90
2018-09-30T20:02:19.557Z,99.90
2018-09-30T20:04:48.151Z,99.90
2018-09-30T20:07:16.627Z,99.90
2018-09-30T20:09:44.982Z,99.90
2018-09-30T20:12:13.333Z,99.90
2018-09-30T20:14:41.920Z,99.90
2018-09-30T20:17:10.762Z,99.90
2018-09-30T20:19:39.464Z,99.90
2018-09-30T20:22:09.195Z,99.90
2018-09-30T20:24:37.637Z,99.90
2018-09-30T20:27:06.108Z,99.90
2018-09-30T20:29:34.960Z,99.90
2018-09-30T20:32:03.339Z,99.90
2018-09-30T20:34:31.909Z,99.90
2018-09-30T20:37:01.183Z,99.90
2018-09-30T20:39:30.051Z,99.90
2018-09-30T20:41:58.544Z,99.90
2018-09-30T20:44:27.597Z,99.90
2018-09-30T20:46:55.975Z,99.90
2018-09-30T20:49:24.339Z,99.90
2018-09-30T20:51:52.726Z,99.90
2018-09-30T20:54:21.108Z,99.90
2018-09-30T20:56:49.489Z,99.90
2018-09-30T20:59:17.856Z,99.90
2018-09-30T21:01:46.246Z,99.90
2018-09-30T21:04:14.629Z,99.90
2018-09-30T21:06:44.118Z,99.90
2018-09-30T21:09:14.483Z,99.90
2018-09-30T21:11:42.861Z,99.90
2018-09-30T21:14:11.252Z,99.90
2018-09-30T21:16:39.631Z,99.90
2018-09-30T21:19:08.050Z,99.90
2018-09-30T21:21:38.506Z,99.90
2018-09-30T21:24:07.919Z,99.90
2018-09-30T21:26:36.607Z,99.90
2018-09-30T21:29:05.677Z,99.90
2018-09-30T21:31:34.304Z,99.90
2018-09-30T21:34:02.701Z,99.90
2018-09-30T21:36:31.503Z,99.90
2018-09-30T21:38:59.880Z,99.90
2018-09-30T21:41:28.653Z,99.90
2018-09-30T21:43:58.038Z,99.90
2018-09-30T21:46:26.625Z,99.90
2018-09-30T21:48:55.147Z,99.90
2018-09-30T21:51:23.551Z,99.90
2018-09-30T21:53:51.880Z,99.90
2018-09-30T21:56:20.432Z,99.90
2018-09-30T21:58:48.978Z,99.90
2018-09-30T22:01:17.465Z,99.90
2018-09-30T22:03:46.078Z,99.90
2018-09-30T22:06:14.725Z,99.90
2018-09-30T22:08:43.062Z,99.90
2018-09-30T22:11:11.411Z,99.90
2018-09-30T22:13:39.845Z,99.90
2018-09-30T22:16:08.259Z,99.90
2018-09-30T22:18:36.916Z,99.90
2018-09-30T22:21:05.505Z,99.90
2018-09-30T22:23:33.960Z,99.90
2018-09-30T22:26:02.936Z,99.90
2018-09-30T22:28:31.322Z,99.90
2018-09-30T22:30:59.732Z,99.90
2018-09-30T22:33:28.491Z,99.90
2018-09-30T22:35:57.219Z,99.90
2018-09-30T22:38:25.561Z,99.90
2018-09-30T22:40:53.928Z,99.90
2018-09-30T22:43:22.289Z,99.90
2018-09-30T22:45:50.605Z,99.90
2018-09-30T22:48:18.972Z,99.90
2018-09-30T22:50:47.353Z,99.90
2018-09-30T22:53:15.703Z,99.90
2018-09-30T22:55:44.015Z,99.90
2018-09-30T22:58:12.364Z,99.90
2018-09-30T23:00:40.700Z,99.90
2018-09-30T23:03:09.084Z,99.90
2018-09-30T23:05:37.447Z,99.90
2018-09-30T23:08:05.806Z,99.90
2018-09-30T23:10:34.116Z,99.90
2018-09-30T23:13:02.451Z,99.90
2018-09-30T23:15:30.776Z,99.90
2018-09-30T23:17:59.099Z,99.90
2018-09-30T23:20:27.445Z,99.90
2018-09-30T23:22:55.868Z,99.90
2018-09-30T23:25:24.265Z,99.90
2018-09-30T23:27:52.652Z,99.90
2018-09-30T23:30:21.010Z,99.90
2018-09-30T23:32:49.360Z,99.90
2018-09-30T23:35:17.721Z,99.90
2018-09-30T23:37:46.075Z,99.90
2018-09-30T23:40:14.403Z,99.90
2018-09-30T23:42:42.716Z,99.90
2018-09-30T23:45:11.171Z,99.90
2018-09-30T23:47:39.496Z,99.90
2018-09-30T23:50:07.849Z,99.90
2018-09-30T23:52:36.156Z,99.90
2018-09-30T23:55:04.549Z,99.90
2018-09-30T23:57:32.859Z,99.90
